createdAt,value
2017-04-05T00:00:31.560Z,0
2017-04-05T00:01:12.460Z,0
2017-04-05T00:01:53.355Z,0
2017-04-05T00:02:34.241Z,0
2017-04-05T00:03:15.117Z,0
2017-04-05T00:03:55.989Z,0
2017-04-05T00:04:36.878Z,0
2017-04-05T00:05:17.762Z,0
2017-04-05T00:05:58.643Z,0
2017-04-05T00:06:39.530Z,0
2017-04-05T00:07:20.417Z,0
2017-04-05T00:08:01.297Z,0
2017-04-05T00:08:42.176Z,0
2017-04-05T00:09:23.064Z,0
2017-04-05T00:10:03.955Z,0
2017-04-05T00:10:44.836Z,0
2017-04-05T00:11:25.720Z,0
2017-04-05T00:12:06.602Z,0
2017-04-05T00:12:47.488Z,0
2017-04-05T00:13:28.365Z,0
2017-04-05T00:14:09.242Z,0
2017-04-05T00:14:50.129Z,0
2017-04-05T00:15:31.016Z,0
2017-04-05T00:16:11.891Z,0
2017-04-05T00:16:52.808Z,0
2017-04-05T00:17:33.687Z,0
2017-04-05T00:18:14.573Z,0
2017-04-05T00:18:55.444Z,0
2017-04-05T00:19:36.316Z,0
2017-04-05T00:20:17.205Z,0
2017-04-05T00:20:58.101Z,0
2017-04-05T00:21:38.969Z,0
2017-04-05T00:22:19.856Z,0
2017-04-05T00:23:00.760Z,0
2017-04-05T00:23:41.622Z,0
2017-04-05T00:24:22.504Z,0
2017-04-05T00:25:03.381Z,0
2017-04-05T00:25:44.268Z,0
2017-04-05T00:26:25.157Z,0
2017-04-05T00:27:06.036Z,0
2017-04-05T00:27:46.915Z,0
2017-04-05T00:28:27.800Z,0
2017-04-05T00:29:08.689Z,0
2017-04-05T00:29:49.584Z,0
2017-04-05T00:30:30.432Z,0
2017-04-05T00:31:11.302Z,0
2017-04-05T00:31:52.189Z,0
2017-04-05T00:32:33.077Z,0
2017-04-05T00:33:13.961Z,0
2017-04-05T00:33:54.844Z,0
2017-04-05T00:34:35.724Z,0
2017-04-05T00:35:16.625Z,0
2017-04-05T00:35:57.502Z,0
2017-04-05T00:36:38.377Z,0
2017-04-05T00:37:19.256Z,0
2017-04-05T00:38:00.142Z,0
2017-04-05T00:38:41.022Z,0
2017-04-05T00:39:21.903Z,0
2017-04-05T00:40:02.790Z,0
2017-04-05T00:40:43.697Z,0
2017-04-05T00:41:24.578Z,0
2017-04-05T00:42:05.476Z,0
2017-04-05T00:42:46.365Z,0
2017-04-05T00:43:27.235Z,0
2017-04-05T00:44:08.111Z,0
2017-04-05T00:44:49.021Z,0
2017-04-05T00:45:29.903Z,0
2017-04-05T00:46:10.783Z,0
2017-04-05T00:46:51.652Z,0
2017-04-05T00:47:32.539Z,0
2017-04-05T00:48:13.422Z,0
2017-04-05T00:48:54.303Z,0
2017-04-05T00:49:35.174Z,0
2017-04-05T00:50:16.044Z,0
2017-04-05T00:50:56.922Z,0
2017-04-05T00:51:37.808Z,0
2017-04-05T00:52:18.690Z,0
2017-04-05T00:52:59.567Z,0
2017-04-05T00:53:40.433Z,0
2017-04-05T00:54:21.318Z,0
2017-04-05T00:55:02.211Z,0
2017-04-05T00:55:43.087Z,0
2017-04-05T00:56:23.965Z,0
2017-04-05T00:57:04.848Z,0
2017-04-05T00:57:45.738Z,0
2017-04-05T00:58:26.623Z,0
2017-04-05T00:59:07.514Z,0
2017-04-05T00:59:48.378Z,0
2017-04-05T01:00:29.269Z,0
2017-04-05T01:01:10.153Z,0
2017-04-05T01:01:51.029Z,0
2017-04-05T01:02:31.912Z,0
2017-04-05T01:03:12.798Z,0
2017-04-05T01:03:53.678Z,0
2017-04-05T01:04:34.557Z,0
2017-04-05T01:05:15.450Z,0
2017-04-05T01:05:56.334Z,0
2017-04-05T01:06:37.219Z,0
2017-04-05T01:07:18.100Z,0
2017-04-05T01:07:58.983Z,0
2017-04-05T01:08:39.883Z,0
2017-04-05T01:09:20.759Z,0
2017-04-05T01:10:01.638Z,0
2017-04-05T01:10:42.521Z,0
2017-04-05T01:11:23.407Z,0
2017-04-05T01:12:04.299Z,0
2017-04-05T01:12:45.190Z,0
2017-04-05T01:13:26.071Z,0
2017-04-05T01:14:06.964Z,0
2017-04-05T01:14:47.835Z,0
2017-04-05T01:15:28.757Z,0
2017-04-05T01:16:09.639Z,0
2017-04-05T01:16:50.517Z,0
2017-04-05T01:17:31.383Z,0
2017-04-05T01:18:12.267Z,0
2017-04-05T01:18:53.155Z,0
2017-04-05T01:19:34.027Z,0
2017-04-05T01:20:14.906Z,0
2017-04-05T01:20:55.780Z,0
2017-04-05T01:21:36.650Z,0
2017-04-05T01:22:17.558Z,0
2017-04-05T01:22:58.434Z,0
2017-04-05T01:23:39.300Z,0
2017-04-05T01:24:20.190Z,0
2017-04-05T01:25:01.081Z,0
2017-04-05T01:25:41.959Z,0
2017-04-05T01:26:22.833Z,0
2017-04-05T01:27:03.718Z,0
2017-04-05T01:27:44.602Z,0
2017-04-05T01:28:25.482Z,0
2017-04-05T01:29:06.357Z,0
2017-04-05T01:29:47.250Z,0
2017-04-05T01:30:28.136Z,0
2017-04-05T01:31:09.020Z,0
2017-04-05T01:31:49.895Z,0
2017-04-05T01:32:30.782Z,0
2017-04-05T01:33:11.677Z,0
2017-04-05T01:33:52.555Z,0
2017-04-05T01:34:33.434Z,0
2017-04-05T01:35:14.320Z,0
2017-04-05T01:35:55.208Z,0
2017-04-05T01:36:36.092Z,0
2017-04-05T01:37:16.969Z,0
2017-04-05T01:37:57.850Z,0
2017-04-05T01:38:38.761Z,0
2017-04-05T01:39:19.637Z,0
2017-04-05T01:40:00.519Z,0
2017-04-05T01:40:41.422Z,0
2017-04-05T01:41:22.312Z,0
2017-04-05T01:42:03.198Z,0
2017-04-05T01:42:44.064Z,0
2017-04-05T01:43:24.955Z,0
2017-04-05T01:44:05.828Z,0
2017-04-05T01:44:46.710Z,0
2017-04-05T01:45:27.591Z,0
2017-04-05T01:46:08.468Z,0
2017-04-05T01:46:49.348Z,0
2017-04-05T01:47:30.250Z,0
2017-04-05T01:48:11.107Z,0
2017-04-05T01:48:51.994Z,0
2017-04-05T01:49:32.880Z,0
2017-04-05T01:50:13.759Z,0
2017-04-05T01:50:54.632Z,0
2017-04-05T01:51:35.515Z,0
2017-04-05T01:52:16.401Z,0
2017-04-05T01:52:57.287Z,0
2017-04-05T01:53:38.166Z,0
2017-04-05T01:54:19.050Z,0
2017-04-05T01:54:59.957Z,0
2017-04-05T01:55:40.837Z,0
2017-04-05T01:56:21.724Z,0
2017-04-05T01:57:02.608Z,0
2017-04-05T01:57:43.487Z,0
2017-04-05T01:58:24.370Z,0
2017-04-05T01:59:05.255Z,0
2017-04-05T01:59:46.143Z,0
2017-04-05T02:00:27.027Z,0
2017-04-05T02:01:07.910Z,0
2017-04-05T02:01:48.799Z,0
2017-04-05T02:02:29.687Z,0
2017-04-05T02:03:10.567Z,0
2017-04-05T02:03:51.443Z,0
2017-04-05T02:04:32.323Z,0
2017-04-05T02:05:13.206Z,0
2017-04-05T02:05:54.092Z,0
2017-04-05T02:06:34.974Z,0
2017-04-05T02:07:15.853Z,0
2017-04-05T02:07:56.754Z,0
2017-04-05T02:08:37.624Z,0
2017-04-05T02:09:18.504Z,0
2017-04-05T02:09:59.395Z,0
2017-04-05T02:10:40.285Z,0
2017-04-05T02:11:21.179Z,0
2017-04-05T02:12:02.051Z,0
2017-04-05T02:12:42.928Z,0
2017-04-05T02:13:23.847Z,0
2017-04-05T02:14:04.738Z,0
2017-04-05T02:14:45.594Z,0
2017-04-05T02:15:26.486Z,0
2017-04-05T02:16:07.394Z,0
2017-04-05T02:16:48.275Z,0
2017-04-05T02:17:29.175Z,0
2017-04-05T02:18:10.039Z,0
2017-04-05T02:18:50.915Z,0
2017-04-05T02:19:31.786Z,0
2017-04-05T02:20:12.711Z,0
2017-04-05T02:20:53.593Z,0
2017-04-05T02:21:34.469Z,0
2017-04-05T02:22:15.348Z,0
2017-04-05T02:22:56.232Z,0
2017-04-05T02:23:37.113Z,0
2017-04-05T02:24:18.005Z,0
2017-04-05T02:24:58.890Z,0
2017-04-05T02:25:39.775Z,0
2017-04-05T02:26:20.654Z,0
2017-04-05T02:27:01.545Z,0
2017-04-05T02:27:42.421Z,0
2017-04-05T02:28:23.306Z,0
2017-04-05T02:29:04.193Z,0
2017-04-05T02:29:45.084Z,0
2017-04-05T02:30:25.964Z,0
2017-04-05T02:31:06.860Z,0
2017-04-05T02:31:47.729Z,0
2017-04-05T02:32:28.615Z,0
2017-04-05T02:33:09.504Z,0
2017-04-05T02:33:50.387Z,0
2017-04-05T02:34:31.268Z,0
2017-04-05T02:35:12.179Z,0
2017-04-05T02:35:53.058Z,0
2017-04-05T02:36:33.943Z,0
2017-04-05T02:37:14.827Z,0
2017-04-05T02:37:55.707Z,0
2017-04-05T02:38:36.592Z,0
2017-04-05T02:39:17.469Z,0
2017-04-05T02:39:58.353Z,0
2017-04-05T02:40:39.256Z,0
2017-04-05T02:41:20.129Z,0
2017-04-05T02:42:01.013Z,0
2017-04-05T02:42:41.892Z,0
2017-04-05T02:43:22.779Z,0
2017-04-05T02:44:03.722Z,0
2017-04-05T02:44:44.609Z,0
2017-04-05T02:45:25.498Z,0
2017-04-05T02:46:06.380Z,0
2017-04-05T02:46:47.268Z,0
2017-04-05T02:47:28.146Z,0
2017-04-05T02:48:09.030Z,0
2017-04-05T02:48:49.920Z,0
2017-04-05T02:49:30.796Z,0
2017-04-05T02:50:11.673Z,0
2017-04-05T02:50:52.548Z,0
2017-04-05T02:51:33.426Z,0
2017-04-05T02:52:14.310Z,0
2017-04-05T02:52:55.194Z,0
2017-04-05T02:53:36.072Z,0
2017-04-05T02:54:17.012Z,0
2017-04-05T02:54:57.934Z,0
2017-04-05T02:55:38.817Z,0
2017-04-05T02:56:19.709Z,0
2017-04-05T02:57:00.587Z,0
2017-04-05T02:57:41.467Z,0
2017-04-05T02:58:22.352Z,0
2017-04-05T02:59:03.234Z,0
2017-04-05T02:59:44.117Z,0
2017-04-05T03:00:24.999Z,0
2017-04-05T03:01:05.908Z,0
2017-04-05T03:01:46.781Z,0
2017-04-05T03:02:27.664Z,0
2017-04-05T03:03:08.547Z,0
2017-04-05T03:03:49.488Z,0
2017-04-05T03:04:30.376Z,0
2017-04-05T03:05:11.263Z,0
2017-04-05T03:05:52.133Z,0
2017-04-05T03:06:33.015Z,0
2017-04-05T03:07:13.902Z,0
2017-04-05T03:07:54.776Z,0
2017-04-05T03:08:35.658Z,0
2017-04-05T03:09:16.542Z,0
2017-04-05T03:09:57.424Z,0
2017-04-05T03:10:38.320Z,0
2017-04-05T03:11:19.209Z,0
2017-04-05T03:12:00.096Z,0
2017-04-05T03:12:40.983Z,0
2017-04-05T03:13:21.863Z,0
2017-04-05T03:14:02.745Z,0
2017-04-05T03:14:43.620Z,0
2017-04-05T03:15:24.502Z,0
2017-04-05T03:16:05.402Z,0
2017-04-05T03:16:46.268Z,0
2017-04-05T03:17:27.151Z,0
2017-04-05T03:18:08.024Z,0
2017-04-05T03:18:48.905Z,0
2017-04-05T03:19:29.787Z,0
2017-04-05T03:20:10.662Z,0
2017-04-05T03:20:51.545Z,0
2017-04-05T03:21:32.431Z,0
2017-04-05T03:22:13.318Z,0
2017-04-05T03:22:54.240Z,0
2017-04-05T03:23:35.146Z,0
2017-04-05T03:24:15.999Z,0
2017-04-05T03:24:56.884Z,0
2017-04-05T03:25:37.767Z,0
2017-04-05T03:26:18.656Z,0
2017-04-05T03:26:59.541Z,0
2017-04-05T03:27:40.422Z,0
2017-04-05T03:28:21.304Z,0
2017-04-05T03:29:02.186Z,0
2017-04-05T03:29:43.064Z,0
2017-04-05T03:30:23.950Z,0
2017-04-05T03:31:04.835Z,0
2017-04-05T03:31:45.726Z,0
2017-04-05T03:32:26.608Z,0
2017-04-05T03:33:07.488Z,0
2017-04-05T03:33:48.371Z,0
2017-04-05T03:34:29.258Z,0
2017-04-05T03:35:10.144Z,0
2017-04-05T03:35:51.020Z,0
2017-04-05T03:36:31.902Z,0
2017-04-05T03:37:12.790Z,0
2017-04-05T03:37:53.670Z,0
2017-04-05T03:38:34.548Z,0
2017-04-05T03:39:15.432Z,0
2017-04-05T03:39:56.317Z,0
2017-04-05T03:40:37.203Z,0
2017-04-05T03:41:18.084Z,0
2017-04-05T03:41:58.967Z,0
2017-04-05T03:42:39.856Z,0
2017-04-05T03:43:20.738Z,0
2017-04-05T03:44:01.620Z,0
2017-04-05T03:44:42.499Z,0
2017-04-05T03:45:23.403Z,0
2017-04-05T03:46:04.290Z,0
2017-04-05T03:46:45.161Z,0
2017-04-05T03:47:26.043Z,0
2017-04-05T03:48:06.929Z,0
2017-04-05T03:48:47.810Z,0
2017-04-05T03:49:28.691Z,0
2017-04-05T03:50:09.573Z,0
2017-04-05T03:50:50.447Z,0
2017-04-05T03:51:31.343Z,0
2017-04-05T03:52:12.223Z,0
2017-04-05T03:52:53.101Z,0
2017-04-05T03:53:34.024Z,0
2017-04-05T03:54:14.913Z,0
2017-04-05T03:54:55.802Z,0
2017-04-05T03:55:36.688Z,0
2017-04-05T03:56:17.576Z,0
2017-04-05T03:56:58.454Z,0
2017-04-05T03:57:39.336Z,0
2017-04-05T03:58:20.224Z,0
2017-04-05T03:59:01.105Z,0
2017-04-05T03:59:41.988Z,0
2017-04-05T04:00:22.877Z,4
2017-04-05T04:01:03.763Z,4
2017-04-05T04:01:44.640Z,4
2017-04-05T04:02:25.521Z,4
2017-04-05T04:03:06.408Z,0
2017-04-05T04:03:47.288Z,0
2017-04-05T04:04:28.169Z,0
2017-04-05T04:05:09.056Z,0
2017-04-05T04:05:49.942Z,0
2017-04-05T04:06:30.816Z,4
2017-04-05T04:07:11.697Z,4
2017-04-05T04:07:52.578Z,4
2017-04-05T04:08:33.460Z,0
2017-04-05T04:09:14.348Z,4
2017-04-05T04:09:55.220Z,0
2017-04-05T04:10:36.096Z,4
2017-04-05T04:11:16.979Z,4
2017-04-05T04:11:57.856Z,4
2017-04-05T04:12:38.746Z,4
2017-04-05T04:13:19.626Z,8
2017-04-05T04:14:00.515Z,4
2017-04-05T04:14:41.401Z,4
2017-04-05T04:15:22.279Z,4
2017-04-05T04:16:03.160Z,8
2017-04-05T04:16:44.048Z,4
2017-04-05T04:17:24.934Z,8
2017-04-05T04:18:05.809Z,8
2017-04-05T04:18:46.697Z,12
2017-04-05T04:19:27.582Z,8
2017-04-05T04:20:08.483Z,8
2017-04-05T04:20:49.365Z,12
2017-04-05T04:21:30.263Z,12
2017-04-05T04:22:11.160Z,16
2017-04-05T04:22:52.036Z,16
2017-04-05T04:23:32.909Z,16
2017-04-05T04:24:13.790Z,20
2017-04-05T04:24:54.764Z,24
2017-04-05T04:25:35.649Z,24
2017-04-05T04:26:16.525Z,28
2017-04-05T04:26:57.415Z,32
2017-04-05T04:27:38.303Z,36
2017-04-05T04:28:19.190Z,40
2017-04-05T04:29:00.068Z,44
2017-04-05T04:29:40.963Z,48
2017-04-05T04:30:21.847Z,52
2017-04-05T04:31:02.729Z,52
2017-04-05T04:31:43.616Z,56
2017-04-05T04:32:24.491Z,60
2017-04-05T04:33:05.379Z,64
2017-04-05T04:33:46.253Z,64
2017-04-05T04:34:27.129Z,68
2017-04-05T04:35:08.007Z,72
2017-04-05T04:35:48.908Z,72
2017-04-05T04:36:29.787Z,72
2017-04-05T04:37:10.673Z,76
2017-04-05T04:37:51.560Z,80
2017-04-05T04:38:32.447Z,88
2017-04-05T04:39:13.328Z,88
2017-04-05T04:39:54.206Z,96
2017-04-05T04:40:35.092Z,104
2017-04-05T04:41:15.976Z,112
2017-04-05T04:41:56.851Z,124
2017-04-05T04:42:37.731Z,136
2017-04-05T04:43:18.625Z,148
2017-04-05T04:43:59.514Z,160
2017-04-05T04:44:40.386Z,168
2017-04-05T04:45:21.276Z,180
2017-04-05T04:46:02.153Z,192
2017-04-05T04:46:43.046Z,204
2017-04-05T04:47:23.918Z,212
2017-04-05T04:48:04.786Z,228
2017-04-05T04:48:45.649Z,244
2017-04-05T04:49:26.529Z,260
2017-04-05T04:50:07.411Z,276
2017-04-05T04:50:48.293Z,300
2017-04-05T04:51:29.190Z,320
2017-04-05T04:52:10.082Z,344
2017-04-05T04:52:50.970Z,364
2017-04-05T04:53:31.862Z,384
2017-04-05T04:54:12.744Z,400
2017-04-05T04:54:53.640Z,412
2017-04-05T04:55:34.516Z,428
2017-04-05T04:56:15.402Z,440
2017-04-05T04:56:56.279Z,460
2017-04-05T04:57:37.165Z,484
2017-04-05T04:58:18.038Z,508
2017-04-05T04:58:58.914Z,544
2017-04-05T04:59:39.784Z,572
2017-04-05T05:00:20.661Z,604
2017-04-05T05:01:01.542Z,632
2017-04-05T05:01:42.447Z,656
2017-04-05T05:02:23.316Z,680
2017-04-05T05:03:04.188Z,700
2017-04-05T05:03:45.073Z,716
2017-04-05T05:04:25.970Z,724
2017-04-05T05:05:06.840Z,732
2017-04-05T05:05:47.718Z,736
2017-04-05T05:06:28.627Z,748
2017-04-05T05:07:09.569Z,760
2017-04-05T05:07:50.493Z,780
2017-04-05T05:08:31.383Z,804
2017-04-05T05:09:12.266Z,844
2017-04-05T05:09:53.147Z,892
2017-04-05T05:10:34.028Z,936
2017-04-05T05:11:14.918Z,976
2017-04-05T05:11:55.804Z,1008
2017-04-05T05:12:36.706Z,1028
2017-04-05T05:13:17.591Z,1032
2017-04-05T05:13:58.479Z,1028
2017-04-05T05:14:39.359Z,1012
2017-04-05T05:15:20.238Z,992
2017-04-05T05:16:01.118Z,968
2017-04-05T05:16:42.003Z,948
2017-04-05T05:17:22.883Z,932
2017-04-05T05:18:03.774Z,920
2017-04-05T05:18:44.661Z,924
2017-04-05T05:19:25.537Z,936
2017-04-05T05:20:06.426Z,960
2017-04-05T05:20:47.305Z,988
2017-04-05T05:21:28.206Z,1024
2017-04-05T05:22:09.074Z,1060
2017-04-05T05:22:49.958Z,1096
2017-04-05T05:23:30.835Z,1124
2017-04-05T05:24:11.718Z,1156
2017-04-05T05:24:52.638Z,1196
2017-04-05T05:25:33.521Z,1236
2017-04-05T05:26:14.401Z,1280
2017-04-05T05:26:55.291Z,1320
2017-04-05T05:27:36.171Z,1364
2017-04-05T05:28:17.055Z,1404
2017-04-05T05:28:57.938Z,1444
2017-04-05T05:29:38.825Z,1472
2017-04-05T05:30:19.710Z,1500
2017-04-05T05:31:00.590Z,1536
2017-04-05T05:31:41.475Z,1584
2017-04-05T05:32:22.357Z,1624
2017-04-05T05:33:03.239Z,1652
2017-04-05T05:33:44.124Z,1656
2017-04-05T05:34:25.009Z,1652
2017-04-05T05:35:05.893Z,1644
2017-04-05T05:35:46.795Z,1652
2017-04-05T05:36:27.680Z,1656
2017-04-05T05:37:08.590Z,1672
2017-04-05T05:37:49.469Z,1696
2017-04-05T05:38:30.351Z,1716
2017-04-05T05:39:11.247Z,1728
2017-04-05T05:39:52.116Z,1740
2017-04-05T05:40:33.017Z,1740
2017-04-05T05:41:13.905Z,1728
2017-04-05T05:41:54.787Z,1712
2017-04-05T05:42:35.692Z,1708
2017-04-05T05:43:16.581Z,1716
2017-04-05T05:43:57.464Z,1744
2017-04-05T05:44:38.351Z,1760
2017-04-05T05:45:19.239Z,1768
2017-04-05T05:46:00.125Z,1772
2017-04-05T05:46:41.006Z,1764
2017-04-05T05:47:21.889Z,1756
2017-04-05T05:48:02.773Z,1748
2017-04-05T05:48:43.657Z,1732
2017-04-05T05:49:24.533Z,1712
2017-04-05T05:50:05.424Z,1680
2017-04-05T05:50:46.305Z,1680
2017-04-05T05:51:27.190Z,1688
2017-04-05T05:52:08.069Z,1696
2017-04-05T05:52:48.952Z,1684
2017-04-05T05:53:29.837Z,1640
2017-04-05T05:54:10.724Z,1600
2017-04-05T05:54:51.594Z,1572
2017-04-05T05:55:32.469Z,1556
2017-04-05T05:56:13.361Z,1568
2017-04-05T05:56:54.256Z,1616
2017-04-05T05:57:35.138Z,1664
2017-04-05T05:58:16.018Z,1684
2017-04-05T05:58:56.901Z,1700
2017-04-05T05:59:37.787Z,1712
2017-04-05T06:00:18.677Z,1732
2017-04-05T06:00:59.552Z,1764
2017-04-05T06:01:40.439Z,1768
2017-04-05T06:02:21.333Z,1748
2017-04-05T06:03:02.202Z,1708
2017-04-05T06:03:43.089Z,1672
2017-04-05T06:04:23.974Z,1628
2017-04-05T06:05:04.862Z,1588
2017-04-05T06:05:45.740Z,1568
2017-04-05T06:06:26.631Z,1568
2017-04-05T06:07:07.520Z,1572
2017-04-05T06:07:48.412Z,1600
2017-04-05T06:08:29.283Z,1624
2017-04-05T06:09:12.079Z,1648
2017-04-05T06:09:53.012Z,1636
2017-04-05T06:10:33.897Z,1636
2017-04-05T06:11:14.775Z,1624
2017-04-05T06:11:55.705Z,1608
2017-04-05T06:12:36.588Z,1564
2017-04-05T06:13:17.471Z,1500
2017-04-05T06:13:58.373Z,1456
2017-04-05T06:14:39.248Z,1408
2017-04-05T06:15:20.132Z,1368
2017-04-05T06:16:01.016Z,1356
2017-04-05T06:16:41.907Z,1364
2017-04-05T06:17:22.787Z,1392
2017-04-05T06:18:03.673Z,1408
2017-04-05T06:18:44.570Z,1424
2017-04-05T06:19:25.445Z,1428
2017-04-05T06:20:06.375Z,1452
2017-04-05T06:20:47.249Z,1504
2017-04-05T06:21:28.130Z,1592
2017-04-05T06:22:09.044Z,1676
2017-04-05T06:22:49.928Z,1752
2017-04-05T06:23:30.813Z,1884
2017-04-05T06:24:11.691Z,2044
2017-04-05T06:24:52.578Z,2264
2017-04-05T06:25:33.471Z,2520
2017-04-05T06:26:14.351Z,2780
2017-04-05T06:28:28.457Z,3604
2017-04-05T06:29:09.329Z,3824
2017-04-05T06:29:50.207Z,3988
2017-04-05T06:30:31.089Z,4036
2017-04-05T06:31:11.970Z,3968
2017-04-05T06:31:52.852Z,4016
2017-04-05T06:32:33.729Z,4100
2017-04-05T06:33:14.609Z,4136
2017-04-05T06:33:55.492Z,4172
2017-04-05T06:34:36.383Z,4248
2017-04-05T06:35:17.264Z,4304
2017-04-05T06:35:58.145Z,4376
2017-04-05T06:36:39.019Z,4468
2017-04-05T06:37:19.899Z,4340
2017-04-05T06:38:00.797Z,3952
2017-04-05T06:38:41.702Z,3620
2017-04-05T06:39:22.600Z,3440
2017-04-05T06:40:03.470Z,3320
2017-04-05T06:40:44.345Z,3176
2017-04-05T06:41:25.221Z,2980
2017-04-05T06:42:06.105Z,2836
2017-04-05T06:42:46.996Z,2776
2017-04-05T06:43:27.863Z,2780
2017-04-05T06:44:08.736Z,2792
2017-04-05T06:44:49.605Z,2880
2017-04-05T06:45:30.489Z,3040
2017-04-05T06:46:11.371Z,3284
2017-04-05T06:46:52.255Z,3476
2017-04-05T06:47:33.137Z,3636
2017-04-05T06:48:14.044Z,3740
2017-04-05T06:48:54.925Z,3792
2017-04-05T06:49:35.815Z,3768
2017-04-05T06:50:16.696Z,3636
2017-04-05T06:50:57.580Z,3532
2017-04-05T06:51:38.467Z,3428
2017-04-05T06:52:19.343Z,3284
2017-04-05T06:53:00.228Z,3116
2017-04-05T06:53:41.130Z,3000
2017-04-05T06:54:21.997Z,2916
2017-04-05T06:55:02.876Z,2888
2017-04-05T06:55:43.762Z,2848
2017-04-05T06:56:24.652Z,2796
2017-04-05T06:57:05.531Z,2820
2017-04-05T06:57:46.412Z,2916
2017-04-05T06:58:27.299Z,3060
2017-04-05T06:59:08.200Z,3176
2017-04-05T06:59:49.068Z,3252
2017-04-05T07:00:29.941Z,3392
2017-04-05T07:01:10.826Z,3560
2017-04-05T07:01:51.714Z,3672
2017-04-05T07:02:32.603Z,3648
2017-04-05T07:03:13.486Z,3576
2017-04-05T07:03:54.370Z,3476
2017-04-05T07:04:35.264Z,3316
2017-04-05T07:05:16.136Z,3160
2017-04-05T07:05:57.013Z,3116
2017-04-05T07:06:37.892Z,3152
2017-04-05T07:07:18.795Z,3188
2017-04-05T07:07:59.667Z,3184
2017-04-05T07:08:40.543Z,3172
2017-04-05T07:09:21.424Z,3168
2017-04-05T07:10:02.311Z,3212
2017-04-05T07:10:43.189Z,3176
2017-04-05T07:11:24.062Z,2940
2017-04-05T07:12:04.943Z,2624
2017-04-05T07:12:45.828Z,2420
2017-04-05T07:13:26.710Z,2364
2017-04-05T07:14:07.602Z,2412
2017-04-05T07:14:48.527Z,2456
2017-04-05T07:15:29.417Z,2532
2017-04-05T07:16:10.292Z,2636
2017-04-05T07:16:51.178Z,2720
2017-04-05T07:17:32.096Z,2712
2017-04-05T07:18:12.963Z,2652
2017-04-05T07:18:53.860Z,2624
2017-04-05T07:19:34.735Z,2644
2017-04-05T07:20:15.616Z,2740
2017-04-05T07:20:56.503Z,2932
2017-04-05T07:21:37.368Z,3220
2017-04-05T07:22:18.246Z,3564
2017-04-05T07:22:59.158Z,3980
2017-04-05T07:23:40.035Z,4384
2017-04-05T07:24:21.021Z,4692
2017-04-05T07:25:01.797Z,4748
2017-04-05T07:25:42.677Z,4528
2017-04-05T07:26:23.560Z,4360
2017-04-05T07:27:04.434Z,4304
2017-04-05T07:27:45.311Z,4364
2017-04-05T07:28:26.196Z,4444
2017-04-05T07:29:07.090Z,4536
2017-04-05T07:29:47.957Z,4564
2017-04-05T07:30:28.842Z,4508
2017-04-05T07:31:09.732Z,4504
2017-04-05T07:31:50.606Z,4456
2017-04-05T07:32:31.491Z,4360
2017-04-05T07:33:12.374Z,4132
2017-04-05T07:33:53.262Z,3952
2017-04-05T07:34:34.143Z,3976
2017-04-05T07:35:15.017Z,3972
2017-04-05T07:35:55.903Z,3960
2017-04-05T07:36:36.793Z,4100
2017-04-05T07:37:17.674Z,4372
2017-04-05T07:37:58.557Z,4756
2017-04-05T07:38:39.443Z,5328
2017-04-05T07:39:20.329Z,5976
2017-04-05T07:40:01.211Z,6468
2017-04-05T07:40:42.093Z,6820
2017-04-05T07:41:22.978Z,7016
2017-04-05T07:42:03.860Z,7068
2017-04-05T07:42:44.743Z,7008
2017-04-05T07:43:25.653Z,7132
2017-04-05T07:45:04.037Z,6148
2017-04-05T07:45:44.974Z,5332
2017-04-05T07:46:26.138Z,4748
2017-04-05T07:47:07.025Z,4452
2017-04-05T07:47:47.910Z,4320
2017-04-05T07:48:28.792Z,4380
2017-04-05T07:49:09.689Z,4500
2017-04-05T07:49:50.578Z,4472
2017-04-05T07:50:31.462Z,4528
2017-04-05T07:51:12.334Z,4892
2017-04-05T07:51:53.219Z,5672
2017-04-05T07:52:35.917Z,6468
2017-04-05T07:54:16.617Z,6888
2017-04-05T07:58:04.989Z,7288
2017-04-05T07:58:45.870Z,7772
2017-04-05T07:59:26.762Z,8268
2017-04-05T08:00:07.662Z,8664
2017-04-05T08:00:48.571Z,9156
2017-04-05T08:01:29.459Z,9612
2017-04-05T08:02:10.345Z,10024
2017-04-05T08:02:51.223Z,10352
2017-04-05T08:03:32.112Z,10524
2017-04-05T08:04:12.988Z,10740
2017-04-05T08:04:53.872Z,11360
2017-04-05T08:05:34.757Z,12228
2017-04-05T08:06:15.636Z,14544
2017-04-05T08:06:56.522Z,15056
2017-04-05T08:07:37.408Z,17056
2017-04-05T08:08:18.289Z,22048
2017-04-05T08:08:59.197Z,23552
2017-04-05T08:09:40.083Z,20032
2017-04-05T08:10:20.966Z,17632
2017-04-05T08:11:01.836Z,21984
2017-04-05T08:11:42.715Z,18496
2017-04-05T08:12:23.599Z,16928
2017-04-05T08:13:04.491Z,22816
2017-04-05T08:13:45.384Z,15780
2017-04-05T08:14:26.262Z,14864
2017-04-05T08:15:07.169Z,14044
2017-04-05T08:15:48.049Z,15376
2017-04-05T08:16:28.940Z,12412
2017-04-05T08:17:09.835Z,12252
2017-04-05T08:17:50.715Z,13580
2017-04-05T08:18:31.602Z,14100
2017-04-05T08:19:12.491Z,15872
2017-04-05T08:19:53.378Z,20192
2017-04-05T08:20:34.267Z,15124
2017-04-05T08:21:15.155Z,14780
2017-04-05T08:21:56.060Z,13512
2017-04-05T08:22:37.008Z,17984
2017-04-05T08:23:17.882Z,12928
2017-04-05T08:23:58.798Z,12584
2017-04-05T08:24:39.687Z,13108
2017-04-05T08:25:20.539Z,13672
2017-04-05T08:26:01.416Z,13828
2017-04-05T08:26:42.291Z,14408
2017-04-05T08:27:23.177Z,14632
2017-04-05T08:28:04.103Z,12356
2017-04-05T08:28:44.992Z,11968
2017-04-05T08:29:25.874Z,12156
2017-04-05T08:30:06.804Z,12192
2017-04-05T08:30:47.706Z,12016
2017-04-05T08:31:28.577Z,11628
2017-04-05T08:32:09.455Z,10700
2017-04-05T08:32:50.345Z,10296
2017-04-05T08:33:31.238Z,9812
2017-04-05T08:34:12.113Z,9280
2017-04-05T08:34:52.993Z,8816
2017-04-05T08:35:33.873Z,8568
2017-04-05T08:36:14.754Z,8556
2017-04-05T08:36:55.637Z,8776
2017-04-05T08:37:36.522Z,8808
2017-04-05T08:38:17.406Z,8368
2017-04-05T08:38:58.297Z,8536
2017-04-05T08:39:39.182Z,8672
2017-04-05T08:40:20.059Z,8196
2017-04-05T08:41:00.943Z,8608
2017-04-05T08:41:41.830Z,9400
2017-04-05T08:42:22.720Z,10244
2017-04-05T08:43:03.600Z,11772
2017-04-05T08:43:44.522Z,10052
2017-04-05T08:44:25.402Z,9512
2017-04-05T08:45:06.285Z,9264
2017-04-05T08:45:47.196Z,9644
2017-04-05T08:46:28.077Z,16028
2017-04-05T08:47:08.969Z,39296
2017-04-05T08:47:49.886Z,41760
2017-04-05T08:48:30.742Z,27840
2017-04-05T08:49:11.627Z,40544
2017-04-05T08:49:52.528Z,45856
2017-04-05T08:50:33.411Z,45216
2017-04-05T08:51:14.293Z,41120
2017-04-05T08:51:55.181Z,41088
2017-04-05T08:52:36.066Z,42752
2017-04-05T08:53:16.953Z,42624
2017-04-05T08:53:57.821Z,41664
2017-04-05T08:54:38.714Z,40640
2017-04-05T08:55:19.601Z,34816
2017-04-05T08:56:00.479Z,27936
2017-04-05T08:56:41.364Z,26368
2017-04-05T08:57:22.240Z,41664
2017-04-05T08:58:03.165Z,43424
2017-04-05T08:58:44.014Z,45824
2017-04-05T08:59:24.903Z,50560
2017-04-05T09:00:05.791Z,50688
2017-04-05T09:00:46.682Z,49760
2017-04-05T09:01:27.574Z,40448
2017-04-05T09:02:08.463Z,27072
2017-04-05T09:02:49.359Z,19712
2017-04-05T09:03:30.257Z,18784
2017-04-05T09:04:11.146Z,19872
2017-04-05T09:04:52.034Z,21504
2017-04-05T09:05:32.923Z,21280
2017-04-05T09:06:13.814Z,20704
2017-04-05T09:06:54.715Z,18816
2017-04-05T09:07:35.601Z,20288
2017-04-05T09:08:16.497Z,21600
2017-04-05T09:08:57.390Z,22144
2017-04-05T09:09:38.278Z,21504
2017-04-05T09:10:19.180Z,20128
2017-04-05T09:11:00.069Z,20768
2017-04-05T09:11:40.948Z,20160
2017-04-05T09:12:21.837Z,18944
2017-04-05T09:13:02.732Z,18176
2017-04-05T09:13:43.639Z,17184
2017-04-05T09:14:24.534Z,17536
2017-04-05T09:15:05.420Z,16832
2017-04-05T09:15:46.365Z,16800
2017-04-05T09:16:27.254Z,16800
2017-04-05T09:17:08.226Z,17408
2017-04-05T09:17:49.050Z,18784
2017-04-05T09:18:29.940Z,19872
2017-04-05T09:19:10.830Z,20928
2017-04-05T09:19:51.726Z,21536
2017-04-05T09:20:32.619Z,21600
2017-04-05T09:21:13.526Z,21568
2017-04-05T09:21:54.403Z,19552
2017-04-05T09:22:35.288Z,18272
2017-04-05T09:23:16.191Z,17952
2017-04-05T09:23:57.078Z,17888
2017-04-05T09:24:37.963Z,17920
2017-04-05T09:25:18.865Z,17920
2017-04-05T09:25:59.793Z,17760
2017-04-05T09:26:40.684Z,17184
2017-04-05T09:27:21.572Z,16512
2017-04-05T09:28:02.479Z,16384
2017-04-05T09:28:43.342Z,16384
2017-04-05T09:29:24.236Z,16288
2017-04-05T09:30:05.119Z,16320
2017-04-05T09:30:46.022Z,18048
2017-04-05T09:31:26.921Z,17344
2017-04-05T09:32:07.803Z,14848
2017-04-05T09:32:48.697Z,15968
2017-04-05T09:33:29.591Z,14464
2017-04-05T09:34:10.469Z,17600
2017-04-05T09:34:51.366Z,17632
2017-04-05T09:35:32.266Z,18880
2017-04-05T09:36:13.151Z,18912
2017-04-05T09:36:54.044Z,19744